sensor_id;sensor_type;location;lat;lon;timestamp;temperature;humidity
47521;DHT22;32291;52.010;4.446;2022-09-09T00:00:24;15.90;99.90
47521;DHT22;32291;52.010;4.446;2022-09-09T00:03:23;15.80;99.90
47521;DHT22;32291;52.010;4.446;2022-09-09T00:04:37;15.90;99.90
47521;DHT22;32291;52.010;4.446;2022-09-09T00:06:08;16.40;99.90
47521;DHT22;32291;52.010;4.446;2022-09-09T00:07:32;15.90;99.90
47521;DHT22;32291;52.010;4.446;2022-09-09T00:09:08;15.90;99.90
47521;DHT22;32291;52.010;4.446;2022-09-09T00:10:36;15.90;99.90
47521;DHT22;32291;52.010;4.446;2022-09-09T00:11:55;15.80;99.90
47521;DHT22;32291;52.010;4.446;2022-09-09T00:13:24;15.80;99.90
47521;DHT22;32291;52.010;4.446;2022-09-09T00:14:59;15.80;99.90
47521;DHT22;32291;52.010;4.446;2022-09-09T00:16:19;15.80;99.90
47521;DHT22;32291;52.010;4.446;2022-09-09T00:17:36;15.80;99.90
47521;DHT22;32291;52.010;4.446;2022-09-09T00:19:09;15.80;99.90
47521;DHT22;32291;52.010;4.446;2022-09-09T00:21:16;15.70;99.90
47521;DHT22;32291;52.010;4.446;2022-09-09T00:22:45;15.70;99.90
47521;DHT22;32291;52.010;4.446;2022-09-09T00:24:32;15.70;99.90
47521;DHT22;32291;52.010;4.446;2022-09-09T00:27:44;15.60;99.90
47521;DHT22;32291;52.010;4.446;2022-09-09T00:29:04;15.60;99.90
47521;DHT22;32291;52.010;4.446;2022-09-09T00:30:34;15.70;99.90
47521;DHT22;32291;52.010;4.446;2022-09-09T00:31:44;16.10;99.90
47521;DHT22;32291;52.010;4.446;2022-09-09T00:32:53;14.50;99.90
47521;DHT22;32291;52.010;4.446;2022-09-09T00:34:10;15.70;99.90
47521;DHT22;32291;52.010;4.446;2022-09-09T00:35:32;15.60;99.90
47521;DHT22;32291;52.010;4.446;2022-09-09T00:36:49;15.60;99.90
47521;DHT22;32291;52.010;4.446;2022-09-09T00:38:00;15.80;99.90
47521;DHT22;32291;52.010;4.446;2022-09-09T00:39:45;15.60;99.90
47521;DHT22;32291;52.010;4.446;2022-09-09T00:42:24;15.60;99.90
47521;DHT22;32291;52.010;4.446;2022-09-09T00:44:03;15.80;99.90
47521;DHT22;32291;52.010;4.446;2022-09-09T00:46:25;15.50;99.90
47521;DHT22;32291;52.010;4.446;2022-09-09T00:48:10;15.50;99.90
47521;DHT22;32291;52.010;4.446;2022-09-09T00:51:15;15.50;99.90
47521;DHT22;32291;52.010;4.446;2022-09-09T00:54:38;15.50;99.90
47521;DHT22;32291;52.010;4.446;2022-09-09T00:56:20;15.50;99.90
47521;DHT22;32291;52.010;4.446;2022-09-09T00:57:33;15.50;99.90
47521;DHT22;32291;52.010;4.446;2022-09-09T01:00:30;16.60;99.90
47521;DHT22;32291;52.010;4.446;2022-09-09T01:01:46;15.40;99.90
47521;DHT22;32291;52.010;4.446;2022-09-09T01:05:07;15.40;99.90
47521;DHT22;32291;52.010;4.446;2022-09-09T01:06:40;15.40;99.90
47521;DHT22;32291;52.010;4.446;2022-09-09T01:07:49;15.40;99.90
47521;DHT22;32291;52.010;4.446;2022-09-09T01:09:21;15.30;99.90
47521;DHT22;32291;52.010;4.446;2022-09-09T01:10:48;14.90;99.90
47521;DHT22;32291;52.010;4.446;2022-09-09T01:13:33;15.30;99.90
47521;DHT22;32291;52.010;4.446;2022-09-09T01:14:48;15.30;99.90
47521;DHT22;32291;52.010;4.446;2022-09-09T01:16:00;15.30;99.90
47521;DHT22;32291;52.010;4.446;2022-09-09T01:17:24;15.30;99.90
47521;DHT22;32291;52.010;4.446;2022-09-09T01:18:44;15.20;99.90
47521;DHT22;32291;52.010;4.446;2022-09-09T01:20:04;15.20;99.90
47521;DHT22;32291;52.010;4.446;2022-09-09T01:21:47;15.20;99.90
47521;DHT22;32291;52.010;4.446;2022-09-09T01:25:20;15.20;99.90
47521;DHT22;32291;52.010;4.446;2022-09-09T01:27:03;15.30;99.90
47521;DHT22;32291;52.010;4.446;2022-09-09T01:28:21;15.20;99.90
47521;DHT22;32291;52.010;4.446;2022-09-09T01:29:29;15.20;99.90
47521;DHT22;32291;52.010;4.446;2022-09-09T01:30:33;15.20;99.90
47521;DHT22;32291;52.010;4.446;2022-09-09T01:31:55;14.60;99.90
47521;DHT22;32291;52.010;4.446;2022-09-09T01:34:01;15.30;99.90
47521;DHT22;32291;52.010;4.446;2022-09-09T01:35:37;15.30;99.90
47521;DHT22;32291;52.010;4.446;2022-09-09T01:37:14;15.40;99.90
47521;DHT22;32291;52.010;4.446;2022-09-09T01:38:17;15.40;99.90
47521;DHT22;32291;52.010;4.446;2022-09-09T01:39:25;15.40;99.90
47521;DHT22;32291;52.010;4.446;2022-09-09T01:40:29;15.40;99.90
47521;DHT22;32291;52.010;4.446;2022-09-09T01:41:32;15.50;99.90
47521;DHT22;32291;52.010;4.446;2022-09-09T01:42:34;15.40;99.90
47521;DHT22;32291;52.010;4.446;2022-09-09T01:43:38;15.40;99.90
47521;DHT22;32291;52.010;4.446;2022-09-09T01:44:44;15.40;99.90
47521;DHT22;32291;52.010;4.446;2022-09-09T01:45:49;15.40;99.90
47521;DHT22;32291;52.010;4.446;2022-09-09T01:46:58;14.30;99.90
47521;DHT22;32291;52.010;4.446;2022-09-09T01:48:01;14.50;99.90
47521;DHT22;32291;52.010;4.446;2022-09-09T01:49:09;15.40;99.90
47521;DHT22;32291;52.010;4.446;2022-09-09T01:50:15;15.20;99.90
47521;DHT22;32291;52.010;4.446;2022-09-09T01:51:20;15.80;99.90
47521;DHT22;32291;52.010;4.446;2022-09-09T01:52:23;15.40;99.90
47521;DHT22;32291;52.010;4.446;2022-09-09T01:53:26;15.40;99.90
47521;DHT22;32291;52.010;4.446;2022-09-09T01:54:33;15.40;99.90
47521;DHT22;32291;52.010;4.446;2022-09-09T01:55:41;15.40;99.90
47521;DHT22;32291;52.010;4.446;2022-09-09T01:57:31;15.40;99.90
47521;DHT22;32291;52.010;4.446;2022-09-09T01:59:07;15.50;99.90
47521;DHT22;32291;52.010;4.446;2022-09-09T02:04:43;15.40;99.90
47521;DHT22;32291;52.010;4.446;2022-09-09T02:07:49;15.40;99.90
47521;DHT22;32291;52.010;4.446;2022-09-09T02:09:07;15.30;99.90
47521;DHT22;32291;52.010;4.446;2022-09-09T02:11:50;15.40;99.90
47521;DHT22;32291;52.010;4.446;2022-09-09T02:13:12;14.20;99.90
47521;DHT22;32291;52.010;4.446;2022-09-09T02:14:27;15.40;99.90
47521;DHT22;32291;52.010;4.446;2022-09-09T02:16:06;15.30;99.90
47521;DHT22;32291;52.010;4.446;2022-09-09T02:17:34;15.60;99.90
47521;DHT22;32291;52.010;4.446;2022-09-09T02:19:08;15.20;99.90
47521;DHT22;32291;52.010;4.446;2022-09-09T02:20:29;15.30;99.90
47521;DHT22;32291;52.010;4.446;2022-09-09T02:21:37;15.30;99.90
47521;DHT22;32291;52.010;4.446;2022-09-09T02:22:46;15.30;99.90
47521;DHT22;32291;52.010;4.446;2022-09-09T02:23:53;15.00;99.90
47521;DHT22;32291;52.010;4.446;2022-09-09T02:25:00;15.30;99.90
47521;DHT22;32291;52.010;4.446;2022-09-09T02:26:09;15.30;99.90
47521;DHT22;32291;52.010;4.446;2022-09-09T02:27:18;15.40;99.90
47521;DHT22;32291;52.010;4.446;2022-09-09T02:28:29;14.90;99.90
47521;DHT22;32291;52.010;4.446;2022-09-09T02:29:40;15.40;99.90
47521;DHT22;32291;52.010;4.446;2022-09-09T02:30:50;15.40;99.90
47521;DHT22;32291;52.010;4.446;2022-09-09T02:32:00;15.60;99.90
47521;DHT22;32291;52.010;4.446;2022-09-09T02:33:13;15.40;99.90
47521;DHT22;32291;52.010;4.446;2022-09-09T02:34:22;15.40;99.90
47521;DHT22;32291;52.010;4.446;2022-09-09T02:35:28;15.40;99.90
47521;DHT22;32291;52.010;4.446;2022-09-09T02:36:35;15.40;99.90
47521;DHT22;32291;52.010;4.446;2022-09-09T02:37:42;15.40;99.90
47521;DHT22;32291;52.010;4.446;2022-09-09T02:38:52;15.30;99.90
47521;DHT22;32291;52.010;4.446;2022-09-09T02:39:55;15.40;99.90
47521;DHT22;32291;52.010;4.446;2022-09-09T02:41:01;15.40;99.90
47521;DHT22;32291;52.010;4.446;2022-09-09T02:42:04;15.40;99.90
47521;DHT22;32291;52.010;4.446;2022-09-09T02:43:14;15.40;99.90
47521;DHT22;32291;52.010;4.446;2022-09-09T02:44:21;15.30;99.90
47521;DHT22;32291;52.010;4.446;2022-09-09T02:45:27;15.40;99.90
47521;DHT22;32291;52.010;4.446;2022-09-09T02:47:35;15.40;99.90
47521;DHT22;32291;52.010;4.446;2022-09-09T02:52:19;15.40;99.90
47521;DHT22;32291;52.010;4.446;2022-09-09T02:55:46;15.30;99.90
47521;DHT22;32291;52.010;4.446;2022-09-09T02:56:54;15.40;99.90
47521;DHT22;32291;52.010;4.446;2022-09-09T02:58:09;15.30;99.90
47521;DHT22;32291;52.010;4.446;2022-09-09T02:59:21;15.40;99.90
47521;DHT22;32291;52.010;4.446;2022-09-09T03:00:28;15.50;99.90
47521;DHT22;32291;52.010;4.446;2022-09-09T03:01:44;15.30;99.90
47521;DHT22;32291;52.010;4.446;2022-09-09T03:02:46;15.40;99.90
47521;DHT22;32291;52.010;4.446;2022-09-09T03:03:50;15.80;99.90
47521;DHT22;32291;52.010;4.446;2022-09-09T03:05:00;15.40;99.90
47521;DHT22;32291;52.010;4.446;2022-09-09T03:06:04;15.90;99.90
47521;DHT22;32291;52.010;4.446;2022-09-09T03:07:08;15.30;99.90
47521;DHT22;32291;52.010;4.446;2022-09-09T03:08:14;15.60;99.90
47521;DHT22;32291;52.010;4.446;2022-09-09T03:09:19;15.30;99.90
47521;DHT22;32291;52.010;4.446;2022-09-09T03:10:28;15.30;99.90
47521;DHT22;32291;52.010;4.446;2022-09-09T03:11:35;15.40;99.90
47521;DHT22;32291;52.010;4.446;2022-09-09T03:12:43;15.40;99.90
47521;DHT22;32291;52.010;4.446;2022-09-09T03:13:51;15.30;99.90
47521;DHT22;32291;52.010;4.446;2022-09-09T03:14:57;15.40;99.90
47521;DHT22;32291;52.010;4.446;2022-09-09T03:16:03;15.40;99.90
47521;DHT22;32291;52.010;4.446;2022-09-09T03:17:10;15.30;99.90
47521;DHT22;32291;52.010;4.446;2022-09-09T03:18:14;15.30;99.90
47521;DHT22;32291;52.010;4.446;2022-09-09T03:19:16;15.40;99.90
47521;DHT22;32291;52.010;4.446;2022-09-09T03:20:20;15.30;99.90
47521;DHT22;32291;52.010;4.446;2022-09-09T03:21:23;15.40;99.90
47521;DHT22;32291;52.010;4.446;2022-09-09T03:22:28;15.40;99.90
47521;DHT22;32291;52.010;4.446;2022-09-09T03:23:33;15.30;99.90
47521;DHT22;32291;52.010;4.446;2022-09-09T03:24:36;15.30;99.90
47521;DHT22;32291;52.010;4.446;2022-09-09T03:25:52;15.40;99.90
47521;DHT22;32291;52.010;4.446;2022-09-09T03:27:05;15.40;99.90
47521;DHT22;32291;52.010;4.446;2022-09-09T03:28:11;15.40;99.90
47521;DHT22;32291;52.010;4.446;2022-09-09T03:29:21;15.30;99.90
47521;DHT22;32291;52.010;4.446;2022-09-09T03:30:30;15.40;99.90
47521;DHT22;32291;52.010;4.446;2022-09-09T03:31:36;15.50;99.90
47521;DHT22;32291;52.010;4.446;2022-09-09T03:32:45;15.40;99.90
47521;DHT22;32291;52.010;4.446;2022-09-09T03:33:48;15.40;99.90
47521;DHT22;32291;52.010;4.446;2022-09-09T03:35:00;15.40;99.90
47521;DHT22;32291;52.010;4.446;2022-09-09T03:36:03;15.40;99.90
47521;DHT22;32291;52.010;4.446;2022-09-09T03:37:07;15.50;99.90
47521;DHT22;32291;52.010;4.446;2022-09-09T03:38:14;14.80;99.90
47521;DHT22;32291;52.010;4.446;2022-09-09T03:39:22;15.50;99.90
47521;DHT22;32291;52.010;4.446;2022-09-09T03:40:31;15.50;99.90
47521;DHT22;32291;52.010;4.446;2022-09-09T03:41:37;15.50;99.90
47521;DHT22;32291;52.010;4.446;2022-09-09T03:42:42;15.50;99.90
47521;DHT22;32291;52.010;4.446;2022-09-09T03:43:48;14.60;99.90
47521;DHT22;32291;52.010;4.446;2022-09-09T03:44:56;15.50;99.90
47521;DHT22;32291;52.010;4.446;2022-09-09T03:45:59;15.50;99.90
47521;DHT22;32291;52.010;4.446;2022-09-09T03:47:03;15.50;99.90
47521;DHT22;32291;52.010;4.446;2022-09-09T03:48:16;15.50;99.90
47521;DHT22;32291;52.010;4.446;2022-09-09T03:49:23;15.40;99.90
47521;DHT22;32291;52.010;4.446;2022-09-09T03:50:30;15.40;99.90
47521;DHT22;32291;52.010;4.446;2022-09-09T03:51:33;15.50;99.90
47521;DHT22;32291;52.010;4.446;2022-09-09T03:52:40;15.40;99.90
47521;DHT22;32291;52.010;4.446;2022-09-09T03:53:47;16.10;99.90
47521;DHT22;32291;52.010;4.446;2022-09-09T03:54:50;15.40;99.90
47521;DHT22;32291;52.010;4.446;2022-09-09T03:55:56;15.40;99.90
47521;DHT22;32291;52.010;4.446;2022-09-09T03:57:02;15.40;99.90
47521;DHT22;32291;52.010;4.446;2022-09-09T03:58:22;15.50;99.90
47521;DHT22;32291;52.010;4.446;2022-09-09T03:59:28;15.40;99.90
47521;DHT22;32291;52.010;4.446;2022-09-09T04:00:31;15.40;99.90
47521;DHT22;32291;52.010;4.446;2022-09-09T04:01:37;15.50;99.90
47521;DHT22;32291;52.010;4.446;2022-09-09T04:02:40;15.50;99.90
47521;DHT22;32291;52.010;4.446;2022-09-09T04:03:47;15.50;99.90
47521;DHT22;32291;52.010;4.446;2022-09-09T04:04:52;15.50;99.90
47521;DHT22;32291;52.010;4.446;2022-09-09T04:05:57;15.50;99.90
47521;DHT22;32291;52.010;4.446;2022-09-09T04:07:02;15.70;99.90
47521;DHT22;32291;52.010;4.446;2022-09-09T04:08:14;15.00;99.90
47521;DHT22;32291;52.010;4.446;2022-09-09T04:09:22;15.90;99.90
47521;DHT22;32291;52.010;4.446;2022-09-09T04:10:25;15.40;99.90
47521;DHT22;32291;52.010;4.446;2022-09-09T04:11:29;15.60;99.90
47521;DHT22;32291;52.010;4.446;2022-09-09T04:12:32;15.40;99.90
47521;DHT22;32291;52.010;4.446;2022-09-09T04:13:37;15.40;99.90
47521;DHT22;32291;52.010;4.446;2022-09-09T04:14:43;15.40;99.90
47521;DHT22;32291;52.010;4.446;2022-09-09T04:15:56;15.40;99.90
47521;DHT22;32291;52.010;4.446;2022-09-09T04:17:03;14.90;99.90
47521;DHT22;32291;52.010;4.446;2022-09-09T04:18:10;15.40;99.90
47521;DHT22;32291;52.010;4.446;2022-09-09T04:19:16;15.40;99.90
47521;DHT22;32291;52.010;4.446;2022-09-09T04:20:26;15.00;99.90
47521;DHT22;32291;52.010;4.446;2022-09-09T04:21:29;15.40;99.90
47521;DHT22;32291;52.010;4.446;2022-09-09T04:22:33;15.50;99.90
47521;DHT22;32291;52.010;4.446;2022-09-09T04:23:39;15.40;99.90
47521;DHT22;32291;52.010;4.446;2022-09-09T04:24:45;15.40;99.90
47521;DHT22;32291;52.010;4.446;2022-09-09T04:26:01;15.40;99.90
47521;DHT22;32291;52.010;4.446;2022-09-09T04:27:10;15.30;99.90
47521;DHT22;32291;52.010;4.446;2022-09-09T04:28:21;14.20;99.90
47521;DHT22;32291;52.010;4.446;2022-09-09T04:29:30;15.30;99.90
47521;DHT22;32291;52.010;4.446;2022-09-09T04:30:40;16.20;99.90
47521;DHT22;32291;52.010;4.446;2022-09-09T04:31:49;15.30;99.90
47521;DHT22;32291;52.010;4.446;2022-09-09T04:32:56;15.30;99.90
47521;DHT22;32291;52.010;4.446;2022-09-09T04:34:02;15.30;99.90
47521;DHT22;32291;52.010;4.446;2022-09-09T04:35:07;15.30;99.90
47521;DHT22;32291;52.010;4.446;2022-09-09T04:36:13;15.30;99.90
47521;DHT22;32291;52.010;4.446;2022-09-09T04:37:18;15.30;99.90
47521;DHT22;32291;52.010;4.446;2022-09-09T04:38:30;15.90;99.90
47521;DHT22;32291;52.010;4.446;2022-09-09T04:39:50;15.30;99.90
47521;DHT22;32291;52.010;4.446;2022-09-09T04:40:53;14.40;99.90
47521;DHT22;32291;52.010;4.446;2022-09-09T04:41:59;15.30;99.90
47521;DHT22;32291;52.010;4.446;2022-09-09T04:43:03;15.00;99.90
47521;DHT22;32291;52.010;4.446;2022-09-09T04:44:06;15.30;99.90
47521;DHT22;32291;52.010;4.446;2022-09-09T04:45:10;14.90;99.90
47521;DHT22;32291;52.010;4.446;2022-09-09T04:46:13;15.30;99.90
47521;DHT22;32291;52.010;4.446;2022-09-09T04:47:15;16.00;99.90
47521;DHT22;32291;52.010;4.446;2022-09-09T04:48:19;15.30;99.90
47521;DHT22;32291;52.010;4.446;2022-09-09T04:49:22;15.20;99.90
47521;DHT22;32291;52.010;4.446;2022-09-09T04:50:26;15.20;99.90
47521;DHT22;32291;52.010;4.446;2022-09-09T04:51:36;15.20;99.90
47521;DHT22;32291;52.010;4.446;2022-09-09T04:52:40;15.20;99.90
47521;DHT22;32291;52.010;4.446;2022-09-09T04:53:44;14.00;99.90
47521;DHT22;32291;52.010;4.446;2022-09-09T04:54:49;15.10;99.90
47521;DHT22;32291;52.010;4.446;2022-09-09T04:56:15;15.10;99.90
47521;DHT22;32291;52.010;4.446;2022-09-09T04:57:18;15.10;99.90
47521;DHT22;32291;52.010;4.446;2022-09-09T04:58:23;14.90;99.90
47521;DHT22;32291;52.010;4.446;2022-09-09T04:59:29;15.20;99.90
47521;DHT22;32291;52.010;4.446;2022-09-09T05:00:33;14.70;99.90
47521;DHT22;32291;52.010;4.446;2022-09-09T05:01:40;15.10;99.90
47521;DHT22;32291;52.010;4.446;2022-09-09T05:02:47;15.20;99.90
47521;DHT22;32291;52.010;4.446;2022-09-09T05:03:51;15.20;99.90
47521;DHT22;32291;52.010;4.446;2022-09-09T05:04:54;15.10;99.90
47521;DHT22;32291;52.010;4.446;2022-09-09T05:06:08;15.10;99.90
47521;DHT22;32291;52.010;4.446;2022-09-09T05:07:23;15.20;99.90
47521;DHT22;32291;52.010;4.446;2022-09-09T05:08:28;15.20;99.90
47521;DHT22;32291;52.010;4.446;2022-09-09T05:09:31;15.10;99.90
47521;DHT22;32291;52.010;4.446;2022-09-09T05:10:37;15.20;99.90
47521;DHT22;32291;52.010;4.446;2022-09-09T05:11:46;15.10;99.90
47521;DHT22;32291;52.010;4.446;2022-09-09T05:12:54;15.10;99.90
47521;DHT22;32291;52.010;4.446;2022-09-09T05:13:58;15.10;99.90
47521;DHT22;32291;52.010;4.446;2022-09-09T05:15:01;15.10;99.90
47521;DHT22;32291;52.010;4.446;2022-09-09T05:16:05;15.10;99.90
47521;DHT22;32291;52.010;4.446;2022-09-09T05:17:12;15.10;99.90
47521;DHT22;32291;52.010;4.446;2022-09-09T05:18:22;15.10;99.90
47521;DHT22;32291;52.010;4.446;2022-09-09T05:19:25;15.10;99.90
47521;DHT22;32291;52.010;4.446;2022-09-09T05:20:30;15.10;99.90
47521;DHT22;32291;52.010;4.446;2022-09-09T05:21:33;15.10;99.90
47521;DHT22;32291;52.010;4.446;2022-09-09T05:22:37;15.10;99.90
47521;DHT22;32291;52.010;4.446;2022-09-09T05:23:45;15.10;99.90
47521;DHT22;32291;52.010;4.446;2022-09-09T05:24:50;15.10;99.90
47521;DHT22;32291;52.010;4.446;2022-09-09T05:26:00;15.10;99.90
47521;DHT22;32291;52.010;4.446;2022-09-09T05:27:13;15.10;99.90
47521;DHT22;32291;52.010;4.446;2022-09-09T05:28:29;15.10;99.90
47521;DHT22;32291;52.010;4.446;2022-09-09T05:29:35;15.10;99.90
47521;DHT22;32291;52.010;4.446;2022-09-09T05:30:56;15.20;99.90
47521;DHT22;32291;52.010;4.446;2022-09-09T05:32:06;15.70;99.90
47521;DHT22;32291;52.010;4.446;2022-09-09T05:33:15;15.30;99.90
47521;DHT22;32291;52.010;4.446;2022-09-09T05:34:19;15.30;99.90
47521;DHT22;32291;52.010;4.446;2022-09-09T05:35:23;15.20;99.90
47521;DHT22;32291;52.010;4.446;2022-09-09T05:36:28;15.30;99.90
47521;DHT22;32291;52.010;4.446;2022-09-09T05:37:31;15.20;99.90
47521;DHT22;32291;52.010;4.446;2022-09-09T05:38:44;15.30;99.90
47521;DHT22;32291;52.010;4.446;2022-09-09T05:39:48;15.30;99.90
47521;DHT22;32291;52.010;4.446;2022-09-09T05:40:51;15.30;99.90
47521;DHT22;32291;52.010;4.446;2022-09-09T05:41:56;15.30;99.90
47521;DHT22;32291;52.010;4.446;2022-09-09T05:43:00;15.30;99.90
47521;DHT22;32291;52.010;4.446;2022-09-09T05:44:10;15.40;99.90
47521;DHT22;32291;52.010;4.446;2022-09-09T05:45:18;15.30;99.90
47521;DHT22;32291;52.010;4.446;2022-09-09T05:46:25;15.30;99.90
47521;DHT22;32291;52.010;4.446;2022-09-09T05:47:31;15.40;99.90
47521;DHT22;32291;52.010;4.446;2022-09-09T05:48:37;15.50;99.90
47521;DHT22;32291;52.010;4.446;2022-09-09T05:49:41;15.50;99.90
47521;DHT22;32291;52.010;4.446;2022-09-09T05:50:52;15.40;99.90
47521;DHT22;32291;52.010;4.446;2022-09-09T05:51:58;15.50;99.90
47521;DHT22;32291;52.010;4.446;2022-09-09T05:53:02;16.30;99.90
47521;DHT22;32291;52.010;4.446;2022-09-09T05:54:07;15.60;99.90
47521;DHT22;32291;52.010;4.446;2022-09-09T05:55:14;15.60;99.90
47521;DHT22;32291;52.010;4.446;2022-09-09T05:56:20;15.60;99.90
47521;DHT22;32291;52.010;4.446;2022-09-09T05:57:38;15.60;99.90
47521;DHT22;32291;52.010;4.446;2022-09-09T05:58:46;15.70;99.90
47521;DHT22;32291;52.010;4.446;2022-09-09T05:59:51;15.70;99.90
47521;DHT22;32291;52.010;4.446;2022-09-09T06:01:17;17.10;99.90
47521;DHT22;32291;52.010;4.446;2022-09-09T06:02:25;15.60;99.90
47521;DHT22;32291;52.010;4.446;2022-09-09T06:03:35;15.80;99.90
47521;DHT22;32291;52.010;4.446;2022-09-09T06:04:44;15.80;99.90
47521;DHT22;32291;52.010;4.446;2022-09-09T06:05:57;15.00;99.90
47521;DHT22;32291;52.010;4.446;2022-09-09T06:07:08;15.40;99.90
47521;DHT22;32291;52.010;4.446;2022-09-09T06:08:14;15.80;99.90
47521;DHT22;32291;52.010;4.446;2022-09-09T06:09:26;15.80;99.90
47521;DHT22;32291;52.010;4.446;2022-09-09T06:10:30;16.60;99.90
47521;DHT22;32291;52.010;4.446;2022-09-09T06:11:42;15.90;99.90
47521;DHT22;32291;52.010;4.446;2022-09-09T06:12:45;15.90;99.90
47521;DHT22;32291;52.010;4.446;2022-09-09T06:13:49;15.80;99.90
47521;DHT22;32291;52.010;4.446;2022-09-09T06:14:56;15.80;99.90
47521;DHT22;32291;52.010;4.446;2022-09-09T06:15:59;15.80;99.90
47521;DHT22;32291;52.010;4.446;2022-09-09T06:17:02;15.80;99.90
47521;DHT22;32291;52.010;4.446;2022-09-09T06:18:17;15.90;99.90
47521;DHT22;32291;52.010;4.446;2022-09-09T06:19:27;15.90;99.90
47521;DHT22;32291;52.010;4.446;2022-09-09T06:20:33;15.80;99.90
47521;DHT22;32291;52.010;4.446;2022-09-09T06:23:22;15.20;99.90
47521;DHT22;32291;52.010;4.446;2022-09-09T06:24:26;15.80;99.90
47521;DHT22;32291;52.010;4.446;2022-09-09T06:25:33;15.80;99.90
47521;DHT22;32291;52.010;4.446;2022-09-09T06:26:38;15.90;99.90
47521;DHT22;32291;52.010;4.446;2022-09-09T06:27:48;15.90;99.90
47521;DHT22;32291;52.010;4.446;2022-09-09T06:28:53;15.90;99.90
47521;DHT22;32291;52.010;4.446;2022-09-09T06:29:58;16.00;99.90
47521;DHT22;32291;52.010;4.446;2022-09-09T06:31:04;16.00;99.90
47521;DHT22;32291;52.010;4.446;2022-09-09T06:32:10;16.00;99.90
47521;DHT22;32291;52.010;4.446;2022-09-09T06:33:14;16.00;99.90
47521;DHT22;32291;52.010;4.446;2022-09-09T06:34:17;16.00;99.90
47521;DHT22;32291;52.010;4.446;2022-09-09T06:35:20;16.00;99.90
47521;DHT22;32291;52.010;4.446;2022-09-09T06:36:28;16.00;99.90
47521;DHT22;32291;52.010;4.446;2022-09-09T06:37:36;16.00;99.90
47521;DHT22;32291;52.010;4.446;2022-09-09T06:38:40;16.00;99.90
47521;DHT22;32291;52.010;4.446;2022-09-09T06:39:48;16.10;99.90
47521;DHT22;32291;52.010;4.446;2022-09-09T06:40:59;16.10;99.90
47521;DHT22;32291;52.010;4.446;2022-09-09T06:42:03;16.10;99.90
47521;DHT22;32291;52.010;4.446;2022-09-09T06:43:06;16.10;99.90
47521;DHT22;32291;52.010;4.446;2022-09-09T06:44:15;16.10;99.90
47521;DHT22;32291;52.010;4.446;2022-09-09T06:45:18;16.10;99.90
47521;DHT22;32291;52.010;4.446;2022-09-09T06:46:23;16.10;99.90
47521;DHT22;32291;52.010;4.446;2022-09-09T06:47:30;16.10;99.90
47521;DHT22;32291;52.010;4.446;2022-09-09T06:48:35;16.10;99.90
47521;DHT22;32291;52.010;4.446;2022-09-09T06:49:49;15.40;99.90
47521;DHT22;32291;52.010;4.446;2022-09-09T06:51:16;16.10;99.90
47521;DHT22;32291;52.010;4.446;2022-09-09T06:52:38;16.10;99.90
47521;DHT22;32291;52.010;4.446;2022-09-09T06:53:45;16.20;99.90
47521;DHT22;32291;52.010;4.446;2022-09-09T06:54:53;16.20;99.90
47521;DHT22;32291;52.010;4.446;2022-09-09T06:56:28;16.20;99.90
47521;DHT22;32291;52.010;4.446;2022-09-09T06:57:51;16.20;99.90
47521;DHT22;32291;52.010;4.446;2022-09-09T06:58:56;16.30;99.90
47521;DHT22;32291;52.010;4.446;2022-09-09T07:00:08;16.20;99.90
47521;DHT22;32291;52.010;4.446;2022-09-09T07:01:16;17.20;99.90
47521;DHT22;32291;52.010;4.446;2022-09-09T07:02:37;16.20;99.90
47521;DHT22;32291;52.010;4.446;2022-09-09T07:03:50;16.30;99.90
47521;DHT22;32291;52.010;4.446;2022-09-09T07:05:00;16.20;99.90
47521;DHT22;32291;52.010;4.446;2022-09-09T07:06:02;15.90;99.90
47521;DHT22;32291;52.010;4.446;2022-09-09T07:07:09;16.30;99.90
47521;DHT22;32291;52.010;4.446;2022-09-09T07:08:54;16.30;99.90
47521;DHT22;32291;52.010;4.446;2022-09-09T07:10:31;15.80;99.90
47521;DHT22;32291;52.010;4.446;2022-09-09T07:11:57;16.30;99.90
47521;DHT22;32291;52.010;4.446;2022-09-09T07:13:39;16.30;99.90
47521;DHT22;32291;52.010;4.446;2022-09-09T07:14:46;16.90;99.90
47521;DHT22;32291;52.010;4.446;2022-09-09T07:15:51;16.40;99.90
47521;DHT22;32291;52.010;4.446;2022-09-09T07:16:55;16.30;99.90
47521;DHT22;32291;52.010;4.446;2022-09-09T07:18:04;16.30;99.90
47521;DHT22;32291;52.010;4.446;2022-09-09T07:19:08;15.30;99.90
47521;DHT22;32291;52.010;4.446;2022-09-09T07:20:22;16.30;99.90
47521;DHT22;32291;52.010;4.446;2022-09-09T07:23:42;16.30;99.90
47521;DHT22;32291;52.010;4.446;2022-09-09T07:24:48;16.20;99.90
47521;DHT22;32291;52.010;4.446;2022-09-09T07:25:51;16.30;99.90
47521;DHT22;32291;52.010;4.446;2022-09-09T07:27:02;16.30;99.90
47521;DHT22;32291;52.010;4.446;2022-09-09T07:28:07;16.40;99.90
47521;DHT22;32291;52.010;4.446;2022-09-09T07:29:17;16.20;99.90
47521;DHT22;32291;52.010;4.446;2022-09-09T07:30:26;16.20;99.90
47521;DHT22;32291;52.010;4.446;2022-09-09T07:31:35;16.30;99.90
47521;DHT22;32291;52.010;4.446;2022-09-09T07:32:39;16.30;99.90
47521;DHT22;32291;52.010;4.446;2022-09-09T07:33:45;16.30;99.90
47521;DHT22;32291;52.010;4.446;2022-09-09T07:34:53;16.60;99.90
47521;DHT22;32291;52.010;4.446;2022-09-09T07:36:08;16.30;99.90
47521;DHT22;32291;52.010;4.446;2022-09-09T07:37:25;16.30;99.90
47521;DHT22;32291;52.010;4.446;2022-09-09T07:38:45;16.30;99.90
47521;DHT22;32291;52.010;4.446;2022-09-09T07:40:00;16.30;99.90
47521;DHT22;32291;52.010;4.446;2022-09-09T07:41:15;16.60;99.90
47521;DHT22;32291;52.010;4.446;2022-09-09T07:42:25;16.30;99.90
47521;DHT22;32291;52.010;4.446;2022-09-09T07:43:30;16.30;99.90
47521;DHT22;32291;52.010;4.446;2022-09-09T07:44:33;16.30;99.90
47521;DHT22;32291;52.010;4.446;2022-09-09T07:45:38;15.50;99.90
47521;DHT22;32291;52.010;4.446;2022-09-09T07:46:43;16.30;99.90
47521;DHT22;32291;52.010;4.446;2022-09-09T07:47:50;16.40;99.90
47521;DHT22;32291;52.010;4.446;2022-09-09T07:48:58;16.20;99.90
47521;DHT22;32291;52.010;4.446;2022-09-09T07:50:01;16.30;99.90
47521;DHT22;32291;52.010;4.446;2022-09-09T07:51:07;16.30;99.90
47521;DHT22;32291;52.010;4.446;2022-09-09T07:52:21;16.40;99.90
47521;DHT22;32291;52.010;4.446;2022-09-09T07:53:26;16.40;99.90
47521;DHT22;32291;52.010;4.446;2022-09-09T07:54:32;16.40;99.90
47521;DHT22;32291;52.010;4.446;2022-09-09T07:55:52;16.40;99.90
47521;DHT22;32291;52.010;4.446;2022-09-09T07:57:06;16.50;99.90
47521;DHT22;32291;52.010;4.446;2022-09-09T07:58:12;16.50;99.90
47521;DHT22;32291;52.010;4.446;2022-09-09T07:59:24;16.30;99.90
47521;DHT22;32291;52.010;4.446;2022-09-09T08:00:27;16.50;99.90
47521;DHT22;32291;52.010;4.446;2022-09-09T08:01:37;16.50;99.90
47521;DHT22;32291;52.010;4.446;2022-09-09T08:02:44;16.60;99.90
47521;DHT22;32291;52.010;4.446;2022-09-09T08:04:17;16.50;99.90